Terminal Aerodrome Forecast
Issued by NWS Norman, OK

Home | Current Version | Previous Version | Text Only | Print | Product List | Glossary On
Versions: 1 2 3 4 5 6 7 8 9 10 11 12 13 14 15 16 17 18 19 20 21 22 23 24 25
000
FTUS44 KOUN 211740
TAFSPS
TAF
KSPS 211740Z 2118/2218 17016G23KT P6SM OVC025
     FM212100 17013KT P6SM SCT025
      TEMPO 2121/2123 BKN025
     FM220900 24011KT P6SM SCT010 BKN150
     FM221300 34015KT P6SM BKN150=

USA.gov is the U.S. government's official web portal to all federal, state and local government web resources and services.